sensor_id;sensor_type;location;lat;lon;timestamp;P1;P2;P0
24012;PMS7003;12220;50.194;18.948;2024-03-07T00:01:07;29;23;11
24012;PMS7003;12220;50.194;18.948;2024-03-07T00:03:09;25;22;14
24012;PMS7003;12220;50.194;18.948;2024-03-07T00:05:11;31;27;14
24012;PMS7003;12220;50.194;18.948;2024-03-07T00:07:19;28;25;14
24012;PMS7003;12220;50.194;18.948;2024-03-07T00:09:21;31;29;15
24012;PMS7003;12220;50.194;18.948;2024-03-07T00:11:25;34;23;15
24012;PMS7003;12220;50.194;18.948;2024-03-07T00:13:26;40;28;16
24012;PMS7003;12220;50.194;18.948;2024-03-07T00:15:34;28;22;13
24012;PMS7003;12220;50.194;18.948;2024-03-07T00:17:36;22;21;14
24012;PMS7003;12220;50.194;18.948;2024-03-07T00:19:37;22;19;13
24012;PMS7003;12220;50.194;18.948;2024-03-07T00:21:40;25;20;11
24012;PMS7003;12220;50.194;18.948;2024-03-07T00:23:49;20;19;12
24012;PMS7003;12220;50.194;18.948;2024-03-07T00:25:50;19;17;11
24012;PMS7003;12220;50.194;18.948;2024-03-07T00:27:52;24;18;9
24012;PMS7003;12220;50.194;18.948;2024-03-07T00:29:54;25;23;16
24012;PMS7003;12220;50.194;18.948;2024-03-07T00:32:04;25;22;15
24012;PMS7003;12220;50.194;18.948;2024-03-07T00:34:08;34;19;13
24012;PMS7003;12220;50.194;18.948;2024-03-07T00:36:11;24;16;10
24012;PMS7003;12220;50.194;18.948;2024-03-07T00:38:12;29;21;13
24012;PMS7003;12220;50.194;18.948;2024-03-07T00:40:19;19;17;13
24012;PMS7003;12220;50.194;18.948;2024-03-07T00:42:21;37;25;12
24012;PMS7003;12220;50.194;18.948;2024-03-07T00:44:23;24;19;12
24012;PMS7003;12220;50.194;18.948;2024-03-07T00:46:24;23;20;13
24012;PMS7003;12220;50.194;18.948;2024-03-07T00:48:34;28;22;12
24012;PMS7003;12220;50.194;18.948;2024-03-07T00:50:36;19;15;11
24012;PMS7003;12220;50.194;18.948;2024-03-07T00:52:37;23;22;11
24012;PMS7003;12220;50.194;18.948;2024-03-07T00:54:39;30;17;12
24012;PMS7003;12220;50.194;18.948;2024-03-07T00:56:49;29;25;17
24012;PMS7003;12220;50.194;18.948;2024-03-07T00:58:51;25;21;11
24012;PMS7003;12220;50.194;18.948;2024-03-07T01:00:52;24;21;13
24012;PMS7003;12220;50.194;18.948;2024-03-07T01:02:53;23;20;12
24012;PMS7003;12220;50.194;18.948;2024-03-07T01:05:05;22;21;14
24012;PMS7003;12220;50.194;18.948;2024-03-07T01:07:11;25;22;13
24012;PMS7003;12220;50.194;18.948;2024-03-07T01:09:12;32;23;14
24012;PMS7003;12220;50.194;18.948;2024-03-07T01:11:19;35;24;14
24012;PMS7003;12220;50.194;18.948;2024-03-07T01:13:20;30;25;17
24012;PMS7003;12220;50.194;18.948;2024-03-07T01:15:24;37;30;16
24012;PMS7003;12220;50.194;18.948;2024-03-07T01:17:26;33;31;17
24012;PMS7003;12220;50.194;18.948;2024-03-07T01:19:27;29;27;17
24012;PMS7003;12220;50.194;18.948;2024-03-07T01:21:35;26;24;13
24012;PMS7003;12220;50.194;18.948;2024-03-07T01:23:37;35;28;16
24012;PMS7003;12220;50.194;18.948;2024-03-07T01:25:38;28;22;15
24012;PMS7003;12220;50.194;18.948;2024-03-07T01:27:41;30;26;15
24012;PMS7003;12220;50.194;18.948;2024-03-07T01:29:50;35;27;15
24012;PMS7003;12220;50.194;18.948;2024-03-07T01:31:53;38;27;17
24012;PMS7003;12220;50.194;18.948;2024-03-07T01:33:55;34;29;18
24012;PMS7003;12220;50.194;18.948;2024-03-07T01:35:56;30;28;19
24012;PMS7003;12220;50.194;18.948;2024-03-07T01:38:05;44;30;17
24012;PMS7003;12220;50.194;18.948;2024-03-07T01:40:11;43;34;20
24012;PMS7003;12220;50.194;18.948;2024-03-07T01:42:14;37;32;17
24012;PMS7003;12220;50.194;18.948;2024-03-07T01:44:16;22;21;11
24012;PMS7003;12220;50.194;18.948;2024-03-07T01:46:21;42;30;19
24012;PMS7003;12220;50.194;18.948;2024-03-07T01:48:25;34;30;16
24012;PMS7003;12220;50.194;18.948;2024-03-07T01:50:29;25;23;16
24012;PMS7003;12220;50.194;18.948;2024-03-07T01:52:30;38;31;15
24012;PMS7003;12220;50.194;18.948;2024-03-07T01:54:36;36;28;16
24012;PMS7003;12220;50.194;18.948;2024-03-07T01:56:39;39;33;20
24012;PMS7003;12220;50.194;18.948;2024-03-07T01:58:41;32;28;18
24012;PMS7003;12220;50.194;18.948;2024-03-07T02:00:43;27;22;13
24012;PMS7003;12220;50.194;18.948;2024-03-07T02:02:52;37;29;14
24012;PMS7003;12220;50.194;18.948;2024-03-07T02:04:54;35;28;17
24012;PMS7003;12220;50.194;18.948;2024-03-07T02:06:55;35;22;13
24012;PMS7003;12220;50.194;18.948;2024-03-07T02:08:59;35;31;18
24012;PMS7003;12220;50.194;18.948;2024-03-07T02:11:07;39;29;16
24012;PMS7003;12220;50.194;18.948;2024-03-07T02:13:10;43;33;20
24012;PMS7003;12220;50.194;18.948;2024-03-07T02:15:11;33;29;19
24012;PMS7003;12220;50.194;18.948;2024-03-07T02:17:14;29;26;16
24012;PMS7003;12220;50.194;18.948;2024-03-07T02:19:23;33;24;13
24012;PMS7003;12220;50.194;18.948;2024-03-07T02:21:24;38;28;14
24012;PMS7003;12220;50.194;18.948;2024-03-07T02:23:26;38;32;19
24012;PMS7003;12220;50.194;18.948;2024-03-07T02:25:28;32;27;18
24012;PMS7003;12220;50.194;18.948;2024-03-07T02:27:38;36;28;18
24012;PMS7003;12220;50.194;18.948;2024-03-07T02:29:40;34;28;18
24012;PMS7003;12220;50.194;18.948;2024-03-07T02:31:41;28;23;14
24012;PMS7003;12220;50.194;18.948;2024-03-07T02:33:43;29;24;16
24012;PMS7003;12220;50.194;18.948;2024-03-07T02:35:53;27;25;17
24012;PMS7003;12220;50.194;18.948;2024-03-07T02:37:54;34;28;16
24012;PMS7003;12220;50.194;18.948;2024-03-07T02:39:55;37;28;20
24012;PMS7003;12220;50.194;18.948;2024-03-07T02:41:57;35;25;15
24012;PMS7003;12220;50.194;18.948;2024-03-07T02:44:08;35;29;18
24012;PMS7003;12220;50.194;18.948;2024-03-07T02:46:09;33;25;15
24012;PMS7003;12220;50.194;18.948;2024-03-07T02:48:12;32;23;15
24012;PMS7003;12220;50.194;18.948;2024-03-07T02:50:14;24;22;17
24012;PMS7003;12220;50.194;18.948;2024-03-07T02:52:23;43;36;21
24012;PMS7003;12220;50.194;18.948;2024-03-07T02:54:24;36;32;22
24012;PMS7003;12220;50.194;18.948;2024-03-07T02:56:25;41;34;20
24012;PMS7003;12220;50.194;18.948;2024-03-07T02:58:27;38;29;17
24012;PMS7003;12220;50.194;18.948;2024-03-07T03:00:38;40;33;21
24012;PMS7003;12220;50.194;18.948;2024-03-07T03:02:39;40;35;21
24012;PMS7003;12220;50.194;18.948;2024-03-07T03:04:42;45;34;20
24012;PMS7003;12220;50.194;18.948;2024-03-07T03:06:44;31;30;18
24012;PMS7003;12220;50.194;18.948;2024-03-07T03:08:53;45;33;21
24012;PMS7003;12220;50.194;18.948;2024-03-07T03:10:55;37;32;22
24012;PMS7003;12220;50.194;18.948;2024-03-07T03:13:00;28;24;14
24012;PMS7003;12220;50.194;18.948;2024-03-07T03:15:02;30;26;16
24012;PMS7003;12220;50.194;18.948;2024-03-07T03:17:09;34;31;19
24012;PMS7003;12220;50.194;18.948;2024-03-07T03:19:11;37;29;20
24012;PMS7003;12220;50.194;18.948;2024-03-07T03:21:13;44;29;17
24012;PMS7003;12220;50.194;18.948;2024-03-07T03:23:15;40;29;17
24012;PMS7003;12220;50.194;18.948;2024-03-07T03:25:24;33;28;17
24012;PMS7003;12220;50.194;18.948;2024-03-07T03:27:26;37;33;21
24012;PMS7003;12220;50.194;18.948;2024-03-07T03:29:27;47;34;20
24012;PMS7003;12220;50.194;18.948;2024-03-07T03:31:29;45;32;16
24012;PMS7003;12220;50.194;18.948;2024-03-07T03:33:39;43;35;21
24012;PMS7003;12220;50.194;18.948;2024-03-07T03:35:41;45;33;20
24012;PMS7003;12220;50.194;18.948;2024-03-07T03:37:43;33;27;14
24012;PMS7003;12220;50.194;18.948;2024-03-07T03:39:44;37;32;18
24012;PMS7003;12220;50.194;18.948;2024-03-07T03:41:54;42;34;19
24012;PMS7003;12220;50.194;18.948;2024-03-07T03:43:56;35;30;18
24012;PMS7003;12220;50.194;18.948;2024-03-07T03:45:58;30;28;18
24012;PMS7003;12220;50.194;18.948;2024-03-07T03:48:03;47;38;24
24012;PMS7003;12220;50.194;18.948;2024-03-07T03:50:10;44;35;23
24012;PMS7003;12220;50.194;18.948;2024-03-07T03:52:13;45;35;19
24012;PMS7003;12220;50.194;18.948;2024-03-07T03:54:14;37;34;20
24012;PMS7003;12220;50.194;18.948;2024-03-07T03:56:16;36;30;20
24012;PMS7003;12220;50.194;18.948;2024-03-07T03:58:24;42;29;19
24012;PMS7003;12220;50.194;18.948;2024-03-07T04:00:26;45;32;21
24012;PMS7003;12220;50.194;18.948;2024-03-07T04:02:27;26;24;15
24012;PMS7003;12220;50.194;18.948;2024-03-07T04:04:29;47;35;21
24012;PMS7003;12220;50.194;18.948;2024-03-07T04:06:40;44;34;19
24012;PMS7003;12220;50.194;18.948;2024-03-07T04:08:42;39;32;21
24012;PMS7003;12220;50.194;18.948;2024-03-07T04:10:43;44;31;19
24012;PMS7003;12220;50.194;18.948;2024-03-07T04:12:44;33;30;18
24012;PMS7003;12220;50.194;18.948;2024-03-07T04:14:55;36;31;19
24012;PMS7003;12220;50.194;18.948;2024-03-07T04:16:57;28;27;19
24012;PMS7003;12220;50.194;18.948;2024-03-07T04:18:58;43;36;21
24012;PMS7003;12220;50.194;18.948;2024-03-07T04:20:59;30;29;22
24012;PMS7003;12220;50.194;18.948;2024-03-07T04:23:10;44;34;19
24012;PMS7003;12220;50.194;18.948;2024-03-07T04:25:12;49;38;22
24012;PMS7003;12220;50.194;18.948;2024-03-07T04:27:13;54;41;24
24012;PMS7003;12220;50.194;18.948;2024-03-07T04:29:14;48;37;22
24012;PMS7003;12220;50.194;18.948;2024-03-07T04:31:25;48;34;23
24012;PMS7003;12220;50.194;18.948;2024-03-07T04:33:27;45;36;22
24012;PMS7003;12220;50.194;18.948;2024-03-07T04:35:28;44;32;18
24012;PMS7003;12220;50.194;18.948;2024-03-07T04:37:31;39;32;19
24012;PMS7003;12220;50.194;18.948;2024-03-07T04:39:41;33;30;22
24012;PMS7003;12220;50.194;18.948;2024-03-07T04:41:42;36;32;20
24012;PMS7003;12220;50.194;18.948;2024-03-07T04:43:43;44;33;20
24012;PMS7003;12220;50.194;18.948;2024-03-07T04:45:45;25;22;11
24012;PMS7003;12220;50.194;18.948;2024-03-07T04:47:56;31;25;16
24012;PMS7003;12220;50.194;18.948;2024-03-07T04:49:57;41;33;21
24012;PMS7003;12220;50.194;18.948;2024-03-07T04:51:59;46;34;21
24012;PMS7003;12220;50.194;18.948;2024-03-07T04:54:02;30;26;15
24012;PMS7003;12220;50.194;18.948;2024-03-07T04:56:12;43;32;21
24012;PMS7003;12220;50.194;18.948;2024-03-07T04:58:14;35;27;18
24012;PMS7003;12220;50.194;18.948;2024-03-07T05:00:16;40;32;22
24012;PMS7003;12220;50.194;18.948;2024-03-07T05:02:19;36;31;18
24012;PMS7003;12220;50.194;18.948;2024-03-07T05:04:27;30;26;17
24012;PMS7003;12220;50.194;18.948;2024-03-07T05:06:31;34;32;18
24012;PMS7003;12220;50.194;18.948;2024-03-07T05:08:34;30;25;17
24012;PMS7003;12220;50.194;18.948;2024-03-07T05:10:35;31;25;16
24012;PMS7003;12220;50.194;18.948;2024-03-07T05:12:42;30;27;16
24012;PMS7003;12220;50.194;18.948;2024-03-07T05:14:43;36;29;18
24012;PMS7003;12220;50.194;18.948;2024-03-07T05:16:45;34;27;17
24012;PMS7003;12220;50.194;18.948;2024-03-07T05:18:54;33;28;18
24012;PMS7003;12220;50.194;18.948;2024-03-07T05:21:00;24;22;16
24012;PMS7003;12220;50.194;18.948;2024-03-07T05:23:18;27;27;13
24012;PMS7003;12220;50.194;18.948;2024-03-07T05:25:20;26;24;14
24012;PMS7003;12220;50.194;18.948;2024-03-07T05:27:24;32;26;16
24012;PMS7003;12220;50.194;18.948;2024-03-07T05:29:25;30;25;16
24012;PMS7003;12220;50.194;18.948;2024-03-07T05:31:34;40;27;17
24012;PMS7003;12220;50.194;18.948;2024-03-07T05:33:36;32;22;17
24012;PMS7003;12220;50.194;18.948;2024-03-07T05:35:39;40;32;19
24012;PMS7003;12220;50.194;18.948;2024-03-07T05:37:44;34;30;19
24012;PMS7003;12220;50.194;18.948;2024-03-07T05:39:49;33;29;18
24012;PMS7003;12220;50.194;18.948;2024-03-07T05:41:50;36;27;17
24012;PMS7003;12220;50.194;18.948;2024-03-07T05:43:52;47;35;21
24012;PMS7003;12220;50.194;18.948;2024-03-07T05:45:53;36;28;19
24012;PMS7003;12220;50.194;18.948;2024-03-07T05:48:14;38;28;18
24012;PMS7003;12220;50.194;18.948;2024-03-07T05:50:25;40;32;17
24012;PMS7003;12220;50.194;18.948;2024-03-07T05:52:26;43;32;16
24012;PMS7003;12220;50.194;18.948;2024-03-07T05:54:28;40;30;18
24012;PMS7003;12220;50.194;18.948;2024-03-07T05:56:33;32;28;16
24012;PMS7003;12220;50.194;18.948;2024-03-07T05:58:40;37;31;20
24012;PMS7003;12220;50.194;18.948;2024-03-07T06:00:44;31;28;17
24012;PMS7003;12220;50.194;18.948;2024-03-07T06:02:50;37;29;20
24012;PMS7003;12220;50.194;18.948;2024-03-07T06:04:51;34;31;18
24012;PMS7003;12220;50.194;18.948;2024-03-07T06:06:55;24;21;16
24012;PMS7003;12220;50.194;18.948;2024-03-07T06:08:56;40;29;16
24012;PMS7003;12220;50.194;18.948;2024-03-07T06:10:58;38;32;18
24012;PMS7003;12220;50.194;18.948;2024-03-07T06:13:00;30;26;18
24012;PMS7003;12220;50.194;18.948;2024-03-07T06:15:11;31;28;17
24012;PMS7003;12220;50.194;18.948;2024-03-07T06:17:13;33;28;13
24012;PMS7003;12220;50.194;18.948;2024-03-07T06:19:14;31;26;17
24012;PMS7003;12220;50.194;18.948;2024-03-07T06:21:16;42;29;18
24012;PMS7003;12220;50.194;18.948;2024-03-07T06:23:27;36;31;18
24012;PMS7003;12220;50.194;18.948;2024-03-07T06:25:31;24;21;16
24012;PMS7003;12220;50.194;18.948;2024-03-07T06:27:44;31;29;19
24012;PMS7003;12220;50.194;18.948;2024-03-07T06:29:50;38;31;16
24012;PMS7003;12220;50.194;18.948;2024-03-07T06:31:51;38;29;18
24012;PMS7003;12220;50.194;18.948;2024-03-07T06:33:55;32;28;16
24012;PMS7003;12220;50.194;18.948;2024-03-07T06:35:57;36;28;17
24012;PMS7003;12220;50.194;18.948;2024-03-07T06:37:59;28;27;18
24012;PMS7003;12220;50.194;18.948;2024-03-07T06:40:07;38;30;17
24012;PMS7003;12220;50.194;18.948;2024-03-07T06:42:11;30;26;13
24012;PMS7003;12220;50.194;18.948;2024-03-07T06:44:15;36;32;17
24012;PMS7003;12220;50.194;18.948;2024-03-07T06:46:23;38;30;18
24012;PMS7003;12220;50.194;18.948;2024-03-07T06:48:25;39;30;20
24012;PMS7003;12220;50.194;18.948;2024-03-07T06:50:26;40;31;20
24012;PMS7003;12220;50.194;18.948;2024-03-07T06:52:29;39;30;20
24012;PMS7003;12220;50.194;18.948;2024-03-07T06:54:31;34;31;20
24012;PMS7003;12220;50.194;18.948;2024-03-07T06:56:37;38;33;16
24012;PMS7003;12220;50.194;18.948;2024-03-07T06:58:43;37;28;20
24012;PMS7003;12220;50.194;18.948;2024-03-07T07:00:46;25;25;15
24012;PMS7003;12220;50.194;18.948;2024-03-07T07:02:48;34;24;17
24012;PMS7003;12220;50.194;18.948;2024-03-07T07:04:52;30;28;17
24012;PMS7003;12220;50.194;18.948;2024-03-07T07:06:54;28;27;16
24012;PMS7003;12220;50.194;18.948;2024-03-07T07:08:56;29;25;13
24012;PMS7003;12220;50.194;18.948;2024-03-07T07:11:02;40;32;17
24012;PMS7003;12220;50.194;18.948;2024-03-07T07:13:09;42;34;18
24012;PMS7003;12220;50.194;18.948;2024-03-07T07:15:11;40;33;20
24012;PMS7003;12220;50.194;18.948;2024-03-07T07:17:13;41;27;19
24012;PMS7003;12220;50.194;18.948;2024-03-07T07:19:14;43;33;19
24012;PMS7003;12220;50.194;18.948;2024-03-07T07:21:23;39;27;19
24012;PMS7003;12220;50.194;18.948;2024-03-07T07:23:25;35;29;15
24012;PMS7003;12220;50.194;18.948;2024-03-07T07:25:27;40;32;18
24012;PMS7003;12220;50.194;18.948;2024-03-07T07:27:28;27;21;15
24012;PMS7003;12220;50.194;18.948;2024-03-07T07:29:38;40;33;18
24012;PMS7003;12220;50.194;18.948;2024-03-07T07:31:40;31;25;16
24012;PMS7003;12220;50.194;18.948;2024-03-07T07:33:41;34;31;20
24012;PMS7003;12220;50.194;18.948;2024-03-07T07:35:44;41;29;18
24012;PMS7003;12220;50.194;18.948;2024-03-07T07:37:54;35;32;17
24012;PMS7003;12220;50.194;18.948;2024-03-07T07:39:56;39;29;20
24012;PMS7003;12220;50.194;18.948;2024-03-07T07:41:57;44;31;17
24012;PMS7003;12220;50.194;18.948;2024-03-07T07:44:00;32;28;16
24012;PMS7003;12220;50.194;18.948;2024-03-07T07:46:09;35;28;17
24012;PMS7003;12220;50.194;18.948;2024-03-07T07:48:10;42;35;20
24012;PMS7003;12220;50.194;18.948;2024-03-07T07:50:13;43;33;19
24012;PMS7003;12220;50.194;18.948;2024-03-07T07:52:18;45;33;19
24012;PMS7003;12220;50.194;18.948;2024-03-07T07:54:24;33;29;18
24012;PMS7003;12220;50.194;18.948;2024-03-07T07:56:25;37;31;18
24012;PMS7003;12220;50.194;18.948;2024-03-07T07:58:29;35;31;18
24012;PMS7003;12220;50.194;18.948;2024-03-07T08:00:30;33;30;18
24012;PMS7003;12220;50.194;18.948;2024-03-07T08:02:39;46;35;20
24012;PMS7003;12220;50.194;18.948;2024-03-07T08:04:41;42;33;20
24012;PMS7003;12220;50.194;18.948;2024-03-07T08:06:42;47;34;20
24012;PMS7003;12220;50.194;18.948;2024-03-07T08:08:44;41;34;21
24012;PMS7003;12220;50.194;18.948;2024-03-07T08:10:54;44;36;21
24012;PMS7003;12220;50.194;18.948;2024-03-07T08:12:56;36;26;11
24012;PMS7003;12220;50.194;18.948;2024-03-07T08:14:58;44;32;20
24012;PMS7003;12220;50.194;18.948;2024-03-07T08:16:59;36;31;18
24012;PMS7003;12220;50.194;18.948;2024-03-07T08:19:09;43;35;21
24012;PMS7003;12220;50.194;18.948;2024-03-07T08:21:12;46;32;20
24012;PMS7003;12220;50.194;18.948;2024-03-07T08:23:14;40;33;21
24012;PMS7003;12220;50.194;18.948;2024-03-07T08:25:15;45;36;20
24012;PMS7003;12220;50.194;18.948;2024-03-07T08:27:24;48;36;21
24012;PMS7003;12220;50.194;18.948;2024-03-07T08:29:25;33;30;20
24012;PMS7003;12220;50.194;18.948;2024-03-07T08:31:27;39;15;3
24012;PMS7003;12220;50.194;18.948;2024-03-07T08:33:29;42;32;19
24012;PMS7003;12220;50.194;18.948;2024-03-07T08:35:39;42;32;20
24012;PMS7003;12220;50.194;18.948;2024-03-07T08:37:44;35;27;16
24012;PMS7003;12220;50.194;18.948;2024-03-07T08:39:50;43;31;17
24012;PMS7003;12220;50.194;18.948;2024-03-07T08:41:52;47;38;23
24012;PMS7003;12220;50.194;18.948;2024-03-07T08:43:54;38;33;19
24012;PMS7003;12220;50.194;18.948;2024-03-07T08:45:56;42;34;19
24012;PMS7003;12220;50.194;18.948;2024-03-07T08:47:58;44;34;22
24012;PMS7003;12220;50.194;18.948;2024-03-07T08:50:00;42;32;20
24012;PMS7003;12220;50.194;18.948;2024-03-07T08:52:10;29;26;16
24012;PMS7003;12220;50.194;18.948;2024-03-07T08:54:12;43;32;21
24012;PMS7003;12220;50.194;18.948;2024-03-07T08:56:14;43;35;22
24012;PMS7003;12220;50.194;18.948;2024-03-07T08:58:15;39;33;20
24012;PMS7003;12220;50.194;18.948;2024-03-07T09:00:25;37;31;18
24012;PMS7003;12220;50.194;18.948;2024-03-07T09:02:27;39;32;20
24012;PMS7003;12220;50.194;18.948;2024-03-07T09:04:28;45;33;19
24012;PMS7003;12220;50.194;18.948;2024-03-07T09:06:29;42;32;22
24012;PMS7003;12220;50.194;18.948;2024-03-07T09:08:40;51;37;22
24012;PMS7003;12220;50.194;18.948;2024-03-07T09:10:41;30;28;19
24012;PMS7003;12220;50.194;18.948;2024-03-07T09:12:43;50;34;21
24012;PMS7003;12220;50.194;18.948;2024-03-07T09:14:45;44;37;23
24012;PMS7003;12220;50.194;18.948;2024-03-07T09:16:55;39;30;18
24012;PMS7003;12220;50.194;18.948;2024-03-07T09:18:57;46;33;17
24012;PMS7003;12220;50.194;18.948;2024-03-07T09:20:58;29;27;17
24012;PMS7003;12220;50.194;18.948;2024-03-07T09:23:00;37;30;17
24012;PMS7003;12220;50.194;18.948;2024-03-07T09:25:10;41;31;18
24012;PMS7003;12220;50.194;18.948;2024-03-07T09:27:13;39;34;19
24012;PMS7003;12220;50.194;18.948;2024-03-07T09:29:19;41;34;22
24012;PMS7003;12220;50.194;18.948;2024-03-07T09:31:22;45;34;21
24012;PMS7003;12220;50.194;18.948;2024-03-07T09:33:25;39;34;19
24012;PMS7003;12220;50.194;18.948;2024-03-07T09:35:27;48;40;24
24012;PMS7003;12220;50.194;18.948;2024-03-07T09:37:28;50;39;21
24012;PMS7003;12220;50.194;18.948;2024-03-07T09:39:31;51;38;23
24012;PMS7003;12220;50.194;18.948;2024-03-07T09:41:40;37;32;22
24012;PMS7003;12220;50.194;18.948;2024-03-07T09:43:45;45;36;22
24012;PMS7003;12220;50.194;18.948;2024-03-07T09:45:48;42;32;16
24012;PMS7003;12220;50.194;18.948;2024-03-07T09:47:50;43;35;19
24012;PMS7003;12220;50.194;18.948;2024-03-07T09:49:55;48;38;22
24012;PMS7003;12220;50.194;18.948;2024-03-07T09:51:59;46;34;22
24012;PMS7003;12220;50.194;18.948;2024-03-07T09:54:02;36;29;17
24012;PMS7003;12220;50.194;18.948;2024-03-07T09:56:04;38;32;20
24012;PMS7003;12220;50.194;18.948;2024-03-07T09:58:11;38;30;17
24012;PMS7003;12220;50.194;18.948;2024-03-07T10:00:17;32;31;19
24012;PMS7003;12220;50.194;18.948;2024-03-07T10:02:26;41;33;19
24012;PMS7003;12220;50.194;18.948;2024-03-07T10:04:35;47;35;21
24012;PMS7003;12220;50.194;18.948;2024-03-07T10:06:45;45;35;22
24012;PMS7003;12220;50.194;18.948;2024-03-07T10:08:53;33;30;18
24012;PMS7003;12220;50.194;18.948;2024-03-07T10:10:54;43;32;20
24012;PMS7003;12220;50.194;18.948;2024-03-07T10:12:57;51;33;21
24012;PMS7003;12220;50.194;18.948;2024-03-07T10:15:02;50;37;22
24012;PMS7003;12220;50.194;18.948;2024-03-07T10:17:08;41;33;23
24012;PMS7003;12220;50.194;18.948;2024-03-07T10:19:10;46;36;22
24012;PMS7003;12220;50.194;18.948;2024-03-07T10:21:14;45;34;21
24012;PMS7003;12220;50.194;18.948;2024-03-07T10:23:19;46;35;21
24012;PMS7003;12220;50.194;18.948;2024-03-07T10:25:23;46;36;22
24012;PMS7003;12220;50.194;18.948;2024-03-07T10:27:28;47;34;22
24012;PMS7003;12220;50.194;18.948;2024-03-07T10:29:30;44;32;20
24012;PMS7003;12220;50.194;18.948;2024-03-07T10:31:31;49;35;21
24012;PMS7003;12220;50.194;18.948;2024-03-07T10:33:39;47;38;22
24012;PMS7003;12220;50.194;18.948;2024-03-07T10:35:41;44;34;23
24012;PMS7003;12220;50.194;18.948;2024-03-07T10:37:42;43;34;20
24012;PMS7003;12220;50.194;18.948;2024-03-07T10:39:48;40;34;20
24012;PMS7003;12220;50.194;18.948;2024-03-07T10:41:53;41;29;19
24012;PMS7003;12220;50.194;18.948;2024-03-07T10:43:58;38;32;20
24012;PMS7003;12220;50.194;18.948;2024-03-07T10:46:01;38;33;20
24012;PMS7003;12220;50.194;18.948;2024-03-07T10:48:07;41;34;21
24012;PMS7003;12220;50.194;18.948;2024-03-07T10:50:16;45;33;20
24012;PMS7003;12220;50.194;18.948;2024-03-07T10:52:36;53;39;22
24012;PMS7003;12220;50.194;18.948;2024-03-07T10:54:43;51;38;23
24012;PMS7003;12220;50.194;18.948;2024-03-07T11:01:19;44;36;22
24012;PMS7003;12220;50.194;18.948;2024-03-07T11:03:21;50;37;20
24012;PMS7003;12220;50.194;18.948;2024-03-07T11:05:26;42;35;22
24012;PMS7003;12220;50.194;18.948;2024-03-07T11:07:32;44;35;21
24012;PMS7003;12220;50.194;18.948;2024-03-07T11:09:33;31;30;21
24012;PMS7003;12220;50.194;18.948;2024-03-07T11:11:40;46;36;20
24012;PMS7003;12220;50.194;18.948;2024-03-07T11:13:43;50;39;21
24012;PMS7003;12220;50.194;18.948;2024-03-07T11:15:48;40;30;22
24012;PMS7003;12220;50.194;18.948;2024-03-07T11:17:52;47;34;22
24012;PMS7003;12220;50.194;18.948;2024-03-07T11:19:59;42;32;22
24012;PMS7003;12220;50.194;18.948;2024-03-07T11:22:28;58;42;24
24012;PMS7003;12220;50.194;18.948;2024-03-07T11:24:35;51;39;21
24012;PMS7003;12220;50.194;18.948;2024-03-07T11:26:37;52;37;22
24012;PMS7003;12220;50.194;18.948;2024-03-07T11:28:42;49;40;24
24012;PMS7003;12220;50.194;18.948;2024-03-07T11:30:43;41;31;19
24012;PMS7003;12220;50.194;18.948;2024-03-07T11:32:51;53;38;24
24012;PMS7003;12220;50.194;18.948;2024-03-07T11:34:59;51;37;22
24012;PMS7003;12220;50.194;18.948;2024-03-07T11:37:01;53;37;21
24012;PMS7003;12220;50.194;18.948;2024-03-07T11:39:05;49;37;22
24012;PMS7003;12220;50.194;18.948;2024-03-07T11:41:18;48;36;20
24012;PMS7003;12220;50.194;18.948;2024-03-07T11:43:27;43;33;20
24012;PMS7003;12220;50.194;18.948;2024-03-07T11:45:29;39;31;20
24012;PMS7003;12220;50.194;18.948;2024-03-07T11:47:44;38;33;19
24012;PMS7003;12220;50.194;18.948;2024-03-07T11:49:45;45;37;20
24012;PMS7003;12220;50.194;18.948;2024-03-07T11:51:49;50;39;24
24012;PMS7003;12220;50.194;18.948;2024-03-07T11:53:51;50;41;25
24012;PMS7003;12220;50.194;18.948;2024-03-07T11:55:56;49;36;25
24012;PMS7003;12220;50.194;18.948;2024-03-07T11:57:57;44;33;19
24012;PMS7003;12220;50.194;18.948;2024-03-07T12:00:05;47;36;22
24012;PMS7003;12220;50.194;18.948;2024-03-07T12:02:15;39;33;20
24012;PMS7003;12220;50.194;18.948;2024-03-07T12:04:21;45;33;21
24012;PMS7003;12220;50.194;18.948;2024-03-07T12:06:24;36;33;21
24012;PMS7003;12220;50.194;18.948;2024-03-07T12:08:26;47;35;19
24012;PMS7003;12220;50.194;18.948;2024-03-07T12:10:29;44;33;23
24012;PMS7003;12220;50.194;18.948;2024-03-07T12:12:32;47;34;20
24012;PMS7003;12220;50.194;18.948;2024-03-07T12:14:33;39;33;22
24012;PMS7003;12220;50.194;18.948;2024-03-07T12:16:41;36;31;19
24012;PMS7003;12220;50.194;18.948;2024-03-07T12:18:42;38;30;21
24012;PMS7003;12220;50.194;18.948;2024-03-07T12:20:44;45;33;21
24012;PMS7003;12220;50.194;18.948;2024-03-07T12:22:58;45;34;21
24012;PMS7003;12220;50.194;18.948;2024-03-07T12:25:03;46;34;21
24012;PMS7003;12220;50.194;18.948;2024-03-07T12:27:18;48;35;23
24012;PMS7003;12220;50.194;18.948;2024-03-07T12:29:25;50;37;20
24012;PMS7003;12220;50.194;18.948;2024-03-07T12:31:26;39;33;20
24012;PMS7003;12220;50.194;18.948;2024-03-07T12:33:28;49;38;25
24012;PMS7003;12220;50.194;18.948;2024-03-07T12:35:33;47;34;22
24012;PMS7003;12220;50.194;18.948;2024-03-07T12:37:35;52;40;22
24012;PMS7003;12220;50.194;18.948;2024-03-07T12:39:36;48;40;25
24012;PMS7003;12220;50.194;18.948;2024-03-07T12:41:48;47;36;20
24012;PMS7003;12220;50.194;18.948;2024-03-07T12:43:53;46;34;21
24012;PMS7003;12220;50.194;18.948;2024-03-07T12:45:54;50;37;25
24012;PMS7003;12220;50.194;18.948;2024-03-07T12:47:58;45;35;21
24012;PMS7003;12220;50.194;18.948;2024-03-07T12:50:05;47;35;19
24012;PMS7003;12220;50.194;18.948;2024-03-07T12:52:08;40;33;20
24012;PMS7003;12220;50.194;18.948;2024-03-07T12:54:09;44;35;21
24012;PMS7003;12220;50.194;18.948;2024-03-07T12:56:11;44;33;20
24012;PMS7003;12220;50.194;18.948;2024-03-07T12:58:18;47;36;22
24012;PMS7003;12220;50.194;18.948;2024-03-07T13:00:22;32;31;19
24012;PMS7003;12220;50.194;18.948;2024-03-07T13:02:23;46;33;20
24012;PMS7003;12220;50.194;18.948;2024-03-07T13:04:30;44;36;20
24012;PMS7003;12220;50.194;18.948;2024-03-07T13:06:32;46;37;20
24012;PMS7003;12220;50.194;18.948;2024-03-07T13:08:35;45;33;20
24012;PMS7003;12220;50.194;18.948;2024-03-07T13:10:36;39;30;20